sensor_id;sensor_type;location;lat;lon;timestamp;temperature;humidity
1219;DHT22;599;51.494;6.670;2022-09-21T00:01:07;10.00;1.00
1219;DHT22;599;51.494;6.670;2022-09-21T00:03:54;9.90;1.00
1219;DHT22;599;51.494;6.670;2022-09-21T00:06:24;9.90;1.00
1219;DHT22;599;51.494;6.670;2022-09-21T00:08:51;9.80;1.00
1219;DHT22;599;51.494;6.670;2022-09-21T00:11:19;9.80;1.00
1219;DHT22;599;51.494;6.670;2022-09-21T00:13:51;9.80;1.00
1219;DHT22;599;51.494;6.670;2022-09-21T00:16:18;9.80;1.00
1219;DHT22;599;51.494;6.670;2022-09-21T00:18:45;9.80;1.00
1219;DHT22;599;51.494;6.670;2022-09-21T00:21:13;9.70;1.00
1219;DHT22;599;51.494;6.670;2022-09-21T00:23:40;9.70;1.00
1219;DHT22;599;51.494;6.670;2022-09-21T00:26:16;9.70;1.00
1219;DHT22;599;51.494;6.670;2022-09-21T00:28:44;9.70;1.00
1219;DHT22;599;51.494;6.670;2022-09-21T00:31:12;9.70;1.00
1219;DHT22;599;51.494;6.670;2022-09-21T00:33:40;9.70;1.00
1219;DHT22;599;51.494;6.670;2022-09-21T00:36:08;9.70;1.00
1219;DHT22;599;51.494;6.670;2022-09-21T00:38:37;9.70;1.00
1219;DHT22;599;51.494;6.670;2022-09-21T00:41:04;9.70;1.00
1219;DHT22;599;51.494;6.670;2022-09-21T00:43:36;9.70;1.00
1219;DHT22;599;51.494;6.670;2022-09-21T00:48:43;9.70;1.00
1219;DHT22;599;51.494;6.670;2022-09-21T00:51:11;9.70;1.00
1219;DHT22;599;51.494;6.670;2022-09-21T00:53:38;9.60;1.00
1219;DHT22;599;51.494;6.670;2022-09-21T00:56:04;9.70;1.00
1219;DHT22;599;51.494;6.670;2022-09-21T00:58:35;9.70;1.00
1219;DHT22;599;51.494;6.670;2022-09-21T01:01:09;9.60;1.00
1219;DHT22;599;51.494;6.670;2022-09-21T01:03:35;9.70;1.00
1219;DHT22;599;51.494;6.670;2022-09-21T01:06:01;9.70;1.00
1219;DHT22;599;51.494;6.670;2022-09-21T01:08:36;9.70;1.00
1219;DHT22;599;51.494;6.670;2022-09-21T01:11:18;9.70;1.00
1219;DHT22;599;51.494;6.670;2022-09-21T01:14:10;9.80;1.00
1219;DHT22;599;51.494;6.670;2022-09-21T01:34:44;10.20;1.00
1219;DHT22;599;51.494;6.670;2022-09-21T01:37:44;10.10;1.00
1219;DHT22;599;51.494;6.670;2022-09-21T01:40:19;10.20;1.00
1219;DHT22;599;51.494;6.670;2022-09-21T01:42:48;10.20;1.00
1219;DHT22;599;51.494;6.670;2022-09-21T01:45:20;10.20;1.00
1219;DHT22;599;51.494;6.670;2022-09-21T01:47:50;10.20;1.00
1219;DHT22;599;51.494;6.670;2022-09-21T01:50:23;10.30;1.00
1219;DHT22;599;51.494;6.670;2022-09-21T01:53:06;10.20;1.00
1219;DHT22;599;51.494;6.670;2022-09-21T01:55:40;10.30;1.00
1219;DHT22;599;51.494;6.670;2022-09-21T01:58:14;10.20;1.00
1219;DHT22;599;51.494;6.670;2022-09-21T02:00:57;10.10;1.00
1219;DHT22;599;51.494;6.670;2022-09-21T02:03:36;10.10;1.00
1219;DHT22;599;51.494;6.670;2022-09-21T02:06:05;10.00;1.00
1219;DHT22;599;51.494;6.670;2022-09-21T02:08:31;10.10;1.00
1219;DHT22;599;51.494;6.670;2022-09-21T02:11:00;10.00;1.00
1219;DHT22;599;51.494;6.670;2022-09-21T02:13:31;10.00;1.00
1219;DHT22;599;51.494;6.670;2022-09-21T02:30:21;9.80;1.00
1219;DHT22;599;51.494;6.670;2022-09-21T02:35:31;9.80;1.00
1219;DHT22;599;51.494;6.670;2022-09-21T02:38:45;9.70;1.00
1219;DHT22;599;51.494;6.670;2022-09-21T02:41:18;9.80;1.00
1219;DHT22;599;51.494;6.670;2022-09-21T02:44:02;9.80;1.00
1219;DHT22;599;51.494;6.670;2022-09-21T02:46:40;9.70;1.00
1219;DHT22;599;51.494;6.670;2022-09-21T02:49:13;9.70;1.00
1219;DHT22;599;51.494;6.670;2022-09-21T02:51:49;9.60;1.00
1219;DHT22;599;51.494;6.670;2022-09-21T02:54:21;9.60;1.00
1219;DHT22;599;51.494;6.670;2022-09-21T02:56:51;9.60;1.00
1219;DHT22;599;51.494;6.670;2022-09-21T02:59:18;9.60;1.00
1219;DHT22;599;51.494;6.670;2022-09-21T03:01:46;9.60;1.00
1219;DHT22;599;51.494;6.670;2022-09-21T03:04:12;9.60;1.00
1219;DHT22;599;51.494;6.670;2022-09-21T03:06:37;9.60;1.00
1219;DHT22;599;51.494;6.670;2022-09-21T03:09:04;9.50;1.00
1219;DHT22;599;51.494;6.670;2022-09-21T03:11:30;9.50;1.00
1219;DHT22;599;51.494;6.670;2022-09-21T03:13:55;9.50;1.00
1219;DHT22;599;51.494;6.670;2022-09-21T03:16:22;9.50;1.00
1219;DHT22;599;51.494;6.670;2022-09-21T03:18:49;9.40;1.00
1219;DHT22;599;51.494;6.670;2022-09-21T03:21:15;9.40;1.00
1219;DHT22;599;51.494;6.670;2022-09-21T03:23:41;9.40;1.00
1219;DHT22;599;51.494;6.670;2022-09-21T03:26:07;9.40;1.00
1219;DHT22;599;51.494;6.670;2022-09-21T03:28:33;9.40;1.00
1219;DHT22;599;51.494;6.670;2022-09-21T03:30:59;9.30;1.00
1219;DHT22;599;51.494;6.670;2022-09-21T03:33:25;9.30;1.00
1219;DHT22;599;51.494;6.670;2022-09-21T03:35:51;9.20;1.00
1219;DHT22;599;51.494;6.670;2022-09-21T03:38:18;9.30;1.00
1219;DHT22;599;51.494;6.670;2022-09-21T03:40:47;9.20;1.00
1219;DHT22;599;51.494;6.670;2022-09-21T03:43:14;9.20;1.00
1219;DHT22;599;51.494;6.670;2022-09-21T03:45:40;9.10;1.00
1219;DHT22;599;51.494;6.670;2022-09-21T03:48:08;9.10;1.00
1219;DHT22;599;51.494;6.670;2022-09-21T03:50:38;9.10;1.00
1219;DHT22;599;51.494;6.670;2022-09-21T03:53:04;9.10;1.00
1219;DHT22;599;51.494;6.670;2022-09-21T03:55:30;9.10;1.00
1219;DHT22;599;51.494;6.670;2022-09-21T03:57:57;9.00;1.00
1219;DHT22;599;51.494;6.670;2022-09-21T04:00:23;9.00;1.00
1219;DHT22;599;51.494;6.670;2022-09-21T04:02:49;9.00;1.00
1219;DHT22;599;51.494;6.670;2022-09-21T04:05:15;9.00;1.00
1219;DHT22;599;51.494;6.670;2022-09-21T04:07:43;8.90;1.00
1219;DHT22;599;51.494;6.670;2022-09-21T04:10:15;8.90;1.00
1219;DHT22;599;51.494;6.670;2022-09-21T04:12:45;8.90;1.00
1219;DHT22;599;51.494;6.670;2022-09-21T04:15:13;8.90;1.00
1219;DHT22;599;51.494;6.670;2022-09-21T04:17:40;8.80;1.00
1219;DHT22;599;51.494;6.670;2022-09-21T04:20:07;8.80;1.00
1219;DHT22;599;51.494;6.670;2022-09-21T04:22:34;8.80;1.00
1219;DHT22;599;51.494;6.670;2022-09-21T04:25:02;8.80;1.00
1219;DHT22;599;51.494;6.670;2022-09-21T04:27:31;8.80;1.00
1219;DHT22;599;51.494;6.670;2022-09-21T04:29:58;8.70;1.00
1219;DHT22;599;51.494;6.670;2022-09-21T04:32:24;8.70;1.00
1219;DHT22;599;51.494;6.670;2022-09-21T04:34:50;8.70;1.00
1219;DHT22;599;51.494;6.670;2022-09-21T04:37:16;8.60;1.00
1219;DHT22;599;51.494;6.670;2022-09-21T04:39:42;8.60;1.00
1219;DHT22;599;51.494;6.670;2022-09-21T04:42:08;8.60;1.00
1219;DHT22;599;51.494;6.670;2022-09-21T04:44:35;8.60;1.00
1219;DHT22;599;51.494;6.670;2022-09-21T04:47:01;8.60;1.00
1219;DHT22;599;51.494;6.670;2022-09-21T04:49:27;8.60;1.00
1219;DHT22;599;51.494;6.670;2022-09-21T04:51:53;8.50;1.00
1219;DHT22;599;51.494;6.670;2022-09-21T04:54:21;8.50;1.00
1219;DHT22;599;51.494;6.670;2022-09-21T04:56:47;8.40;1.00
1219;DHT22;599;51.494;6.670;2022-09-21T04:59:13;8.40;1.00
1219;DHT22;599;51.494;6.670;2022-09-21T05:01:39;8.50;1.00
1219;DHT22;599;51.494;6.670;2022-09-21T05:04:05;8.40;1.00
1219;DHT22;599;51.494;6.670;2022-09-21T05:06:31;8.40;1.00
1219;DHT22;599;51.494;6.670;2022-09-21T05:08:58;8.40;1.00
1219;DHT22;599;51.494;6.670;2022-09-21T05:11:43;8.40;1.00
1219;DHT22;599;51.494;6.670;2022-09-21T05:14:09;8.40;1.00
1219;DHT22;599;51.494;6.670;2022-09-21T05:16:36;8.30;1.00
1219;DHT22;599;51.494;6.670;2022-09-21T05:19:02;8.40;1.00
1219;DHT22;599;51.494;6.670;2022-09-21T05:21:28;8.40;1.00
1219;DHT22;599;51.494;6.670;2022-09-21T05:23:56;8.40;1.00
1219;DHT22;599;51.494;6.670;2022-09-21T05:26:23;8.30;1.00
1219;DHT22;599;51.494;6.670;2022-09-21T05:28:49;8.40;1.00
1219;DHT22;599;51.494;6.670;2022-09-21T05:33:47;8.30;1.00
1219;DHT22;599;51.494;6.670;2022-09-21T05:39:24;8.20;1.00
1219;DHT22;599;51.494;6.670;2022-09-21T05:41:51;8.20;1.00
1219;DHT22;599;51.494;6.670;2022-09-21T05:44:18;8.20;1.00
1219;DHT22;599;51.494;6.670;2022-09-21T05:49:58;8.20;1.00
1219;DHT22;599;51.494;6.670;2022-09-21T05:55:56;8.20;1.00
1219;DHT22;599;51.494;6.670;2022-09-21T06:04:20;8.30;1.00
1219;DHT22;599;51.494;6.670;2022-09-21T06:06:46;8.30;1.00
1219;DHT22;599;51.494;6.670;2022-09-21T06:09:13;8.30;1.00
1219;DHT22;599;51.494;6.670;2022-09-21T06:11:39;8.40;1.00
1219;DHT22;599;51.494;6.670;2022-09-21T06:14:05;8.40;1.00
1219;DHT22;599;51.494;6.670;2022-09-21T06:16:41;8.50;1.00
1219;DHT22;599;51.494;6.670;2022-09-21T06:19:12;8.50;1.00
1219;DHT22;599;51.494;6.670;2022-09-21T06:21:38;8.60;1.00
1219;DHT22;599;51.494;6.670;2022-09-21T06:24:04;8.70;1.00
1219;DHT22;599;51.494;6.670;2022-09-21T06:26:30;8.70;1.00
1219;DHT22;599;51.494;6.670;2022-09-21T06:28:57;8.80;1.00
1219;DHT22;599;51.494;6.670;2022-09-21T06:31:26;8.90;1.00
1219;DHT22;599;51.494;6.670;2022-09-21T06:33:52;8.90;1.00
1219;DHT22;599;51.494;6.670;2022-09-21T06:36:18;9.00;1.00
1219;DHT22;599;51.494;6.670;2022-09-21T06:38:43;9.10;1.00
1219;DHT22;599;51.494;6.670;2022-09-21T06:41:09;9.20;1.00
1219;DHT22;599;51.494;6.670;2022-09-21T06:43:35;9.30;1.00
1219;DHT22;599;51.494;6.670;2022-09-21T06:46:02;9.40;1.00
1219;DHT22;599;51.494;6.670;2022-09-21T06:48:29;9.50;1.00
1219;DHT22;599;51.494;6.670;2022-09-21T06:50:57;9.60;1.00
1219;DHT22;599;51.494;6.670;2022-09-21T06:53:27;9.70;1.00
1219;DHT22;599;51.494;6.670;2022-09-21T06:56:05;9.80;1.00
1219;DHT22;599;51.494;6.670;2022-09-21T06:58:34;10.00;1.00
1219;DHT22;599;51.494;6.670;2022-09-21T07:01:08;10.10;1.00
1219;DHT22;599;51.494;6.670;2022-09-21T07:03:36;10.20;1.00
1219;DHT22;599;51.494;6.670;2022-09-21T07:06:03;10.40;1.00
1219;DHT22;599;51.494;6.670;2022-09-21T07:08:30;10.50;1.00
1219;DHT22;599;51.494;6.670;2022-09-21T07:10:59;10.60;1.00
1219;DHT22;599;51.494;6.670;2022-09-21T07:13:26;10.80;1.00
1219;DHT22;599;51.494;6.670;2022-09-21T07:15:52;11.00;1.00
1219;DHT22;599;51.494;6.670;2022-09-21T07:18:18;11.10;1.00
1219;DHT22;599;51.494;6.670;2022-09-21T07:20:44;11.30;1.00
1219;DHT22;599;51.494;6.670;2022-09-21T07:23:11;11.50;1.00
1219;DHT22;599;51.494;6.670;2022-09-21T07:25:46;11.60;1.00
1219;DHT22;599;51.494;6.670;2022-09-21T07:28:17;11.70;1.00
1219;DHT22;599;51.494;6.670;2022-09-21T07:30:43;11.90;1.00
1219;DHT22;599;51.494;6.670;2022-09-21T07:33:09;12.00;1.00
1219;DHT22;599;51.494;6.670;2022-09-21T07:35:35;12.10;1.00
1219;DHT22;599;51.494;6.670;2022-09-21T07:38:03;12.20;1.00
1219;DHT22;599;51.494;6.670;2022-09-21T07:40:31;12.40;1.00
1219;DHT22;599;51.494;6.670;2022-09-21T07:42:58;12.50;1.00
1219;DHT22;599;51.494;6.670;2022-09-21T07:45:26;12.60;1.00
1219;DHT22;599;51.494;6.670;2022-09-21T07:47:52;12.70;1.00
1219;DHT22;599;51.494;6.670;2022-09-21T07:50:22;12.80;1.00
1219;DHT22;599;51.494;6.670;2022-09-21T07:52:48;12.90;1.00
1219;DHT22;599;51.494;6.670;2022-09-21T07:55:14;13.00;1.00
1219;DHT22;599;51.494;6.670;2022-09-21T07:57:40;13.10;1.00
1219;DHT22;599;51.494;6.670;2022-09-21T08:00:24;13.20;1.00
1219;DHT22;599;51.494;6.670;2022-09-21T08:02:53;13.30;1.00
1219;DHT22;599;51.494;6.670;2022-09-21T08:05:19;13.50;1.00
1219;DHT22;599;51.494;6.670;2022-09-21T08:07:45;13.60;1.00
1219;DHT22;599;51.494;6.670;2022-09-21T08:10:11;13.70;1.00
1219;DHT22;599;51.494;6.670;2022-09-21T08:12:37;13.80;1.00
1219;DHT22;599;51.494;6.670;2022-09-21T08:15:03;13.90;1.00
1219;DHT22;599;51.494;6.670;2022-09-21T08:17:30;14.00;1.00
1219;DHT22;599;51.494;6.670;2022-09-21T08:19:56;14.00;1.00
1219;DHT22;599;51.494;6.670;2022-09-21T08:22:23;13.90;1.00
1219;DHT22;599;51.494;6.670;2022-09-21T08:24:50;14.00;1.00
1219;DHT22;599;51.494;6.670;2022-09-21T08:27:25;14.10;1.00
1219;DHT22;599;51.494;6.670;2022-09-21T08:30:03;14.20;1.00
1219;DHT22;599;51.494;6.670;2022-09-21T08:32:42;14.30;1.00
1219;DHT22;599;51.494;6.670;2022-09-21T08:35:08;14.30;1.00
1219;DHT22;599;51.494;6.670;2022-09-21T08:37:36;14.30;1.00
1219;DHT22;599;51.494;6.670;2022-09-21T08:40:11;14.40;1.00
1219;DHT22;599;51.494;6.670;2022-09-21T08:47:12;14.50;1.00
1219;DHT22;599;51.494;6.670;2022-09-21T08:49:52;14.50;1.00
1219;DHT22;599;51.494;6.670;2022-09-21T08:52:25;14.60;1.00
1219;DHT22;599;51.494;6.670;2022-09-21T08:55:04;14.60;1.00
1219;DHT22;599;51.494;6.670;2022-09-21T08:57:39;14.60;1.00
1219;DHT22;599;51.494;6.670;2022-09-21T09:00:18;14.70;1.00
1219;DHT22;599;51.494;6.670;2022-09-21T09:03:08;14.70;1.00
1219;DHT22;599;51.494;6.670;2022-09-21T09:05:55;14.80;99.90
1219;DHT22;599;51.494;6.670;2022-09-21T09:20:20;15.10;99.90
1219;DHT22;599;51.494;6.670;2022-09-21T09:25:53;15.30;99.90
1219;DHT22;599;51.494;6.670;2022-09-21T09:28:40;15.30;99.90
1219;DHT22;599;51.494;6.670;2022-09-21T09:31:24;15.40;99.90
1219;DHT22;599;51.494;6.670;2022-09-21T09:34:12;15.50;99.90
1219;DHT22;599;51.494;6.670;2022-09-21T09:36:46;15.70;99.90
1219;DHT22;599;51.494;6.670;2022-09-21T09:39:15;15.80;99.90
1219;DHT22;599;51.494;6.670;2022-09-21T09:45:32;15.90;99.90
1219;DHT22;599;51.494;6.670;2022-09-21T09:50:39;16.30;99.90
1219;DHT22;599;51.494;6.670;2022-09-21T09:55:52;16.50;99.90
1219;DHT22;599;51.494;6.670;2022-09-21T09:58:34;16.50;99.90
1219;DHT22;599;51.494;6.670;2022-09-21T10:01:45;16.60;99.90
1219;DHT22;599;51.494;6.670;2022-09-21T10:04:15;16.90;99.90
1219;DHT22;599;51.494;6.670;2022-09-21T10:06:45;16.90;99.90
1219;DHT22;599;51.494;6.670;2022-09-21T10:12:00;17.00;99.90
1219;DHT22;599;51.494;6.670;2022-09-21T10:14:53;17.30;99.90
1219;DHT22;599;51.494;6.670;2022-09-21T10:17:23;17.50;99.90
1219;DHT22;599;51.494;6.670;2022-09-21T10:20:00;17.80;99.90
1219;DHT22;599;51.494;6.670;2022-09-21T10:22:28;17.90;99.90
1219;DHT22;599;51.494;6.670;2022-09-21T10:24:56;18.10;99.90
1219;DHT22;599;51.494;6.670;2022-09-21T10:27:34;18.10;99.90
1219;DHT22;599;51.494;6.670;2022-09-21T10:30:01;18.20;99.90
1219;DHT22;599;51.494;6.670;2022-09-21T10:32:27;18.50;99.90
1219;DHT22;599;51.494;6.670;2022-09-21T10:35:12;18.90;99.90
1219;DHT22;599;51.494;6.670;2022-09-21T10:37:41;19.40;99.90
1219;DHT22;599;51.494;6.670;2022-09-21T10:42:47;20.10;99.90
1219;DHT22;599;51.494;6.670;2022-09-21T10:45:18;20.40;99.90
1219;DHT22;599;51.494;6.670;2022-09-21T10:47:58;20.50;99.90
1219;DHT22;599;51.494;6.670;2022-09-21T10:53:27;20.90;99.90
1219;DHT22;599;51.494;6.670;2022-09-21T10:56:02;21.30;99.90
1219;DHT22;599;51.494;6.670;2022-09-21T10:58:33;22.40;99.90
1219;DHT22;599;51.494;6.670;2022-09-21T11:01:11;23.90;99.90
1219;DHT22;599;51.494;6.670;2022-09-21T11:04:11;26.00;99.90
1219;DHT22;599;51.494;6.670;2022-09-21T11:06:56;27.50;73.10
1219;DHT22;599;51.494;6.670;2022-09-21T11:10:13;28.50;56.60
1219;DHT22;599;51.494;6.670;2022-09-21T11:13:08;31.30;24.30
1219;DHT22;599;51.494;6.670;2022-09-21T11:16:25;33.50;8.30
1219;DHT22;599;51.494;6.670;2022-09-21T11:18:58;33.40;6.90
1219;DHT22;599;51.494;6.670;2022-09-21T11:21:44;32.10;4.30
1219;DHT22;599;51.494;6.670;2022-09-21T11:30:16;26.00;28.90
1219;DHT22;599;51.494;6.670;2022-09-21T11:36:10;23.50;56.00
1219;DHT22;599;51.494;6.670;2022-09-21T11:42:05;22.20;71.50
1219;DHT22;599;51.494;6.670;2022-09-21T11:56:54;20.30;90.60
1219;DHT22;599;51.494;6.670;2022-09-21T11:59:49;20.00;96.30
1219;DHT22;599;51.494;6.670;2022-09-21T12:02:47;19.60;97.30
1219;DHT22;599;51.494;6.670;2022-09-21T12:14:29;20.30;99.90
1219;DHT22;599;51.494;6.670;2022-09-21T12:22:54;27.40;46.10
1219;DHT22;599;51.494;6.670;2022-09-21T12:25:31;27.30;38.60
1219;DHT22;599;51.494;6.670;2022-09-21T12:31:13;28.30;26.70
1219;DHT22;599;51.494;6.670;2022-09-21T12:33:56;27.80;19.50
1219;DHT22;599;51.494;6.670;2022-09-21T12:36:56;26.90;24.80
1219;DHT22;599;51.494;6.670;2022-09-21T12:45:45;31.80;4.60
1219;DHT22;599;51.494;6.670;2022-09-21T12:48:33;33.50;1.00
1219;DHT22;599;51.494;6.670;2022-09-21T12:53:46;34.60;21.90
1219;DHT22;599;51.494;6.670;2022-09-21T13:08:11;25.70;15.50
1219;DHT22;599;51.494;6.670;2022-09-21T13:13:34;23.20;30.20
1219;DHT22;599;51.494;6.670;2022-09-21T13:16:05;22.50;38.00
1219;DHT22;599;51.494;6.670;2022-09-21T13:18:34;22.00;46.90
1219;DHT22;599;51.494;6.670;2022-09-21T13:21:18;21.40;52.50
1219;DHT22;599;51.494;6.670;2022-09-21T13:24:01;21.10;57.30
1219;DHT22;599;51.494;6.670;2022-09-21T13:26:40;21.30;55.50
1219;DHT22;599;51.494;6.670;2022-09-21T13:31:57;21.90;50.10
1219;DHT22;599;51.494;6.670;2022-09-21T13:34:45;22.00;48.70
1219;DHT22;599;51.494;6.670;2022-09-21T13:44:56;22.20;51.90
1219;DHT22;599;51.494;6.670;2022-09-21T13:47:31;21.90;45.60
1219;DHT22;599;51.494;6.670;2022-09-21T13:50:01;21.70;47.20
1219;DHT22;599;51.494;6.670;2022-09-21T13:52:47;21.50;47.70
1219;DHT22;599;51.494;6.670;2022-09-21T13:58:06;21.50;51.20
1219;DHT22;599;51.494;6.670;2022-09-21T14:00:52;21.00;51.00
1219;DHT22;599;51.494;6.670;2022-09-21T14:03:25;20.60;53.30
1219;DHT22;599;51.494;6.670;2022-09-21T14:06:06;20.60;57.60
1219;DHT22;599;51.494;6.670;2022-09-21T14:08:50;20.60;57.70
1219;DHT22;599;51.494;6.670;2022-09-21T14:24:45;20.30;58.00
1219;DHT22;599;51.494;6.670;2022-09-21T14:27:30;20.10;62.90
1219;DHT22;599;51.494;6.670;2022-09-21T14:30:22;19.70;66.70
1219;DHT22;599;51.494;6.670;2022-09-21T14:35:51;19.40;72.60
1219;DHT22;599;51.494;6.670;2022-09-21T14:38:24;19.30;69.70
1219;DHT22;599;51.494;6.670;2022-09-21T14:40:58;19.20;81.40
1219;DHT22;599;51.494;6.670;2022-09-21T14:43:34;19.20;82.80
1219;DHT22;599;51.494;6.670;2022-09-21T14:51:57;19.00;94.90
1219;DHT22;599;51.494;6.670;2022-09-21T14:54:32;19.00;96.00
1219;DHT22;599;51.494;6.670;2022-09-21T14:57:42;18.90;97.10
1219;DHT22;599;51.494;6.670;2022-09-21T15:00:34;18.90;95.40
1219;DHT22;599;51.494;6.670;2022-09-21T15:06:25;18.80;95.00
1219;DHT22;599;51.494;6.670;2022-09-21T15:12:57;18.70;97.70
1219;DHT22;599;51.494;6.670;2022-09-21T15:18:40;18.60;99.90
1219;DHT22;599;51.494;6.670;2022-09-21T15:21:35;18.60;99.90
1219;DHT22;599;51.494;6.670;2022-09-21T15:24:20;18.50;99.90
1219;DHT22;599;51.494;6.670;2022-09-21T15:26:54;18.40;99.90
1219;DHT22;599;51.494;6.670;2022-09-21T15:29:29;18.30;99.90
1219;DHT22;599;51.494;6.670;2022-09-21T15:31:56;18.30;99.90
1219;DHT22;599;51.494;6.670;2022-09-21T15:34:24;18.30;99.90
1219;DHT22;599;51.494;6.670;2022-09-21T15:36:51;18.30;99.90
1219;DHT22;599;51.494;6.670;2022-09-21T15:39:30;18.30;99.90
1219;DHT22;599;51.494;6.670;2022-09-21T15:44:36;18.10;99.90
1219;DHT22;599;51.494;6.670;2022-09-21T15:47:06;18.00;99.90
1219;DHT22;599;51.494;6.670;2022-09-21T15:49:34;17.90;99.90
1219;DHT22;599;51.494;6.670;2022-09-21T15:52:24;17.80;99.90
1219;DHT22;599;51.494;6.670;2022-09-21T15:54:58;17.70;99.90
1219;DHT22;599;51.494;6.670;2022-09-21T15:57:31;17.60;99.90
1219;DHT22;599;51.494;6.670;2022-09-21T16:00:01;17.50;99.90
1219;DHT22;599;51.494;6.670;2022-09-21T16:02:48;17.40;99.90
1219;DHT22;599;51.494;6.670;2022-09-21T16:05:20;17.30;99.90
1219;DHT22;599;51.494;6.670;2022-09-21T16:07:47;17.20;99.90
1219;DHT22;599;51.494;6.670;2022-09-21T16:13:03;17.00;99.90
1219;DHT22;599;51.494;6.670;2022-09-21T16:16:05;16.90;99.90
1219;DHT22;599;51.494;6.670;2022-09-21T16:18:51;16.90;99.90
1219;DHT22;599;51.494;6.670;2022-09-21T16:23:54;16.70;99.90
1219;DHT22;599;51.494;6.670;2022-09-21T16:26:26;16.60;99.90
1219;DHT22;599;51.494;6.670;2022-09-21T16:29:20;16.50;99.90
1219;DHT22;599;51.494;6.670;2022-09-21T16:31:50;16.40;99.90
1219;DHT22;599;51.494;6.670;2022-09-21T16:36:57;16.20;99.90
1219;DHT22;599;51.494;6.670;2022-09-21T16:39:23;16.10;99.90
1219;DHT22;599;51.494;6.670;2022-09-21T16:41:55;16.00;99.90
1219;DHT22;599;51.494;6.670;2022-09-21T16:44:26;15.90;99.90
1219;DHT22;599;51.494;6.670;2022-09-21T16:47:01;15.80;99.90
1219;DHT22;599;51.494;6.670;2022-09-21T16:49:31;15.70;99.90
1219;DHT22;599;51.494;6.670;2022-09-21T16:51:59;15.70;99.90
1219;DHT22;599;51.494;6.670;2022-09-21T16:54:26;15.60;99.90
1219;DHT22;599;51.494;6.670;2022-09-21T16:56:57;15.50;99.90
1219;DHT22;599;51.494;6.670;2022-09-21T16:59:24;15.40;99.90
1219;DHT22;599;51.494;6.670;2022-09-21T17:01:57;15.30;99.90
1219;DHT22;599;51.494;6.670;2022-09-21T17:04:30;15.30;99.90
1219;DHT22;599;51.494;6.670;2022-09-21T17:06:57;15.20;99.90
1219;DHT22;599;51.494;6.670;2022-09-21T17:09:30;15.20;99.90
1219;DHT22;599;51.494;6.670;2022-09-21T17:12:03;15.10;99.90
1219;DHT22;599;51.494;6.670;2022-09-21T17:14:33;14.90;99.90
1219;DHT22;599;51.494;6.670;2022-09-21T17:17:05;14.90;99.90
1219;DHT22;599;51.494;6.670;2022-09-21T17:19:35;14.80;99.90
1219;DHT22;599;51.494;6.670;2022-09-21T17:22:05;14.70;99.90
1219;DHT22;599;51.494;6.670;2022-09-21T17:24:32;14.70;99.90
1219;DHT22;599;51.494;6.670;2022-09-21T17:26:59;14.60;99.90
1219;DHT22;599;51.494;6.670;2022-09-21T17:29:26;14.50;99.90
1219;DHT22;599;51.494;6.670;2022-09-21T17:31:54;14.40;99.90
1219;DHT22;599;51.494;6.670;2022-09-21T17:34:23;14.40;99.90
1219;DHT22;599;51.494;6.670;2022-09-21T17:36:52;14.30;99.90
1219;DHT22;599;51.494;6.670;2022-09-21T17:39:20;14.30;99.90
1219;DHT22;599;51.494;6.670;2022-09-21T17:41:56;14.20;99.90
1219;DHT22;599;51.494;6.670;2022-09-21T17:47:26;14.10;99.90
1219;DHT22;599;51.494;6.670;2022-09-21T17:50:07;13.90;99.90
1219;DHT22;599;51.494;6.670;2022-09-21T17:52:43;13.90;99.90
1219;DHT22;599;51.494;6.670;2022-09-21T17:55:58;13.80;99.90
1219;DHT22;599;51.494;6.670;2022-09-21T17:58:50;13.60;99.90
1219;DHT22;599;51.494;6.670;2022-09-21T18:01:31;13.60;99.90
1219;DHT22;599;51.494;6.670;2022-09-21T18:03:58;13.50;99.90
1219;DHT22;599;51.494;6.670;2022-09-21T18:06:24;13.40;99.90
1219;DHT22;599;51.494;6.670;2022-09-21T18:08:51;13.40;99.90
1219;DHT22;599;51.494;6.670;2022-09-21T18:17:53;13.10;99.90
1219;DHT22;599;51.494;6.670;2022-09-21T18:23:34;13.00;99.90
1219;DHT22;599;51.494;6.670;2022-09-21T18:26:08;12.90;99.90
1219;DHT22;599;51.494;6.670;2022-09-21T18:28:47;12.80;99.90
1219;DHT22;599;51.494;6.670;2022-09-21T18:37:01;12.70;99.90
1219;DHT22;599;51.494;6.670;2022-09-21T18:39:50;12.60;99.90
1219;DHT22;599;51.494;6.670;2022-09-21T18:45:32;12.50;1.00
1219;DHT22;599;51.494;6.670;2022-09-21T18:48:18;12.40;1.00
1219;DHT22;599;51.494;6.670;2022-09-21T18:54:01;12.30;1.00
1219;DHT22;599;51.494;6.670;2022-09-21T18:56:32;12.30;1.00
1219;DHT22;599;51.494;6.670;2022-09-21T18:59:00;12.20;1.00
1219;DHT22;599;51.494;6.670;2022-09-21T19:01:27;12.20;1.00
1219;DHT22;599;51.494;6.670;2022-09-21T19:03:57;12.10;1.00
1219;DHT22;599;51.494;6.670;2022-09-21T19:27:37;11.70;1.00
1219;DHT22;599;51.494;6.670;2022-09-21T19:30:11;11.70;1.00
1219;DHT22;599;51.494;6.670;2022-09-21T19:32:54;11.60;1.00
1219;DHT22;599;51.494;6.670;2022-09-21T19:35:31;11.60;1.00
1219;DHT22;599;51.494;6.670;2022-09-21T19:37:59;11.60;1.00
1219;DHT22;599;51.494;6.670;2022-09-21T19:40:32;11.50;1.00
1219;DHT22;599;51.494;6.670;2022-09-21T19:46:21;11.40;1.00
1219;DHT22;599;51.494;6.670;2022-09-21T19:48:55;11.40;1.00
1219;DHT22;599;51.494;6.670;2022-09-21T19:51:42;11.30;1.00
1219;DHT22;599;51.494;6.670;2022-09-21T19:54:21;11.30;1.00
1219;DHT22;599;51.494;6.670;2022-09-21T19:57:22;11.30;1.00
1219;DHT22;599;51.494;6.670;2022-09-21T20:00:09;11.20;1.00
1219;DHT22;599;51.494;6.670;2022-09-21T20:03:02;11.20;1.00
1219;DHT22;599;51.494;6.670;2022-09-21T20:05:49;11.10;1.00
1219;DHT22;599;51.494;6.670;2022-09-21T20:08:34;11.00;1.00
1219;DHT22;599;51.494;6.670;2022-09-21T20:16:27;10.90;1.00
1219;DHT22;599;51.494;6.670;2022-09-21T20:21:43;10.80;1.00
1219;DHT22;599;51.494;6.670;2022-09-21T20:24:22;10.70;1.00
1219;DHT22;599;51.494;6.670;2022-09-21T20:26:50;10.70;1.00
1219;DHT22;599;51.494;6.670;2022-09-21T20:29:17;10.70;1.00
1219;DHT22;599;51.494;6.670;2022-09-21T20:31:45;10.60;1.00
1219;DHT22;599;51.494;6.670;2022-09-21T20:34:12;10.60;1.00
1219;DHT22;599;51.494;6.670;2022-09-21T20:36:38;10.60;1.00
1219;DHT22;599;51.494;6.670;2022-09-21T20:39:04;10.60;1.00
1219;DHT22;599;51.494;6.670;2022-09-21T20:41:30;10.50;1.00
1219;DHT22;599;51.494;6.670;2022-09-21T20:43:56;10.50;1.00
1219;DHT22;599;51.494;6.670;2022-09-21T20:46:23;10.50;1.00
1219;DHT22;599;51.494;6.670;2022-09-21T20:48:50;10.40;1.00
1219;DHT22;599;51.494;6.670;2022-09-21T20:51:30;10.40;1.00
1219;DHT22;599;51.494;6.670;2022-09-21T20:53:59;10.40;1.00
1219;DHT22;599;51.494;6.670;2022-09-21T20:56:29;10.50;1.00
1219;DHT22;599;51.494;6.670;2022-09-21T20:58:55;10.40;1.00
1219;DHT22;599;51.494;6.670;2022-09-21T21:01:22;10.40;1.00
1219;DHT22;599;51.494;6.670;2022-09-21T21:03:48;10.40;1.00
1219;DHT22;599;51.494;6.670;2022-09-21T21:06:15;10.40;1.00
1219;DHT22;599;51.494;6.670;2022-09-21T21:08:45;10.40;1.00
1219;DHT22;599;51.494;6.670;2022-09-21T21:11:12;10.40;1.00
1219;DHT22;599;51.494;6.670;2022-09-21T21:13:39;10.30;1.00
1219;DHT22;599;51.494;6.670;2022-09-21T21:16:05;10.30;1.00
1219;DHT22;599;51.494;6.670;2022-09-21T21:18:32;10.30;1.00
1219;DHT22;599;51.494;6.670;2022-09-21T21:21:02;10.30;1.00
1219;DHT22;599;51.494;6.670;2022-09-21T21:23:31;10.30;1.00
1219;DHT22;599;51.494;6.670;2022-09-21T21:26:17;10.20;1.00
1219;DHT22;599;51.494;6.670;2022-09-21T21:28:43;10.20;1.00
1219;DHT22;599;51.494;6.670;2022-09-21T21:31:09;10.20;1.00
1219;DHT22;599;51.494;6.670;2022-09-21T21:33:36;10.10;1.00
1219;DHT22;599;51.494;6.670;2022-09-21T21:36:06;10.10;1.00
1219;DHT22;599;51.494;6.670;2022-09-21T21:38:33;10.10;1.00
1219;DHT22;599;51.494;6.670;2022-09-21T21:41:03;10.10;1.00
1219;DHT22;599;51.494;6.670;2022-09-21T21:43:33;10.00;1.00